createdAt,value
2022-08-17T00:00:43.332Z,100849.19
2022-08-17T00:03:17.313Z,100856.97
2022-08-17T00:05:49.842Z,100857.25
2022-08-17T00:08:21.653Z,100854.81
2022-08-17T00:10:51.169Z,100855.13
2022-08-17T00:13:25.291Z,100860.03
2022-08-17T00:15:58.677Z,100864.75
2022-08-17T00:19:02.129Z,100856.00
2022-08-17T00:21:23.840Z,100857.16
2022-08-17T00:23:54.302Z,100867.38
2022-08-17T00:26:34.870Z,100858.63
2022-08-17T00:29:20.002Z,100856.19
2022-08-17T00:31:49.352Z,100860.78
2022-08-17T00:34:19.275Z,100849.25
2022-08-17T00:36:47.576Z,100862.22
2022-08-17T00:39:15.828Z,100856.19
2022-08-17T00:41:44.612Z,100861.75
2022-08-17T00:44:13.083Z,100870.25
2022-08-17T00:46:44.316Z,100863.06
2022-08-17T00:49:15.031Z,100873.28
2022-08-17T00:51:50.464Z,100866.25
2022-08-17T00:54:24.961Z,100869.13
2022-08-17T00:56:59.892Z,100865.66
2022-08-17T00:59:32.838Z,100866.81
2022-08-17T01:02:01.757Z,100865.25
2022-08-17T01:04:32.869Z,100863.69
2022-08-17T01:07:04.446Z,100867.56
2022-08-17T01:09:33.931Z,100868.69
2022-08-17T01:12:02.245Z,100872.56
2022-08-17T01:14:30.544Z,100870.84
2022-08-17T01:17:00.186Z,100872.72
2022-08-17T01:19:32.221Z,100869.44
2022-08-17T01:22:10.125Z,100868.72
2022-08-17T01:24:45.916Z,100865.28
2022-08-17T01:27:15.634Z,100876.44
2022-08-17T01:29:49.064Z,100877.91
2022-08-17T01:32:17.979Z,100885.22
2022-08-17T01:34:50.447Z,100893.41
2022-08-17T01:37:22.017Z,100881.78
2022-08-17T01:39:57.042Z,100883.78
2022-08-17T01:42:34.411Z,100881.06
2022-08-17T01:45:12.568Z,100875.88
2022-08-17T01:47:41.747Z,100878.75
2022-08-17T01:50:15.779Z,100882.78
2022-08-17T01:52:45.785Z,100883.91
2022-08-17T01:55:18.709Z,100880.44
2022-08-17T01:57:47.183Z,100871.56
2022-08-17T02:00:18.268Z,100873.56
2022-08-17T02:02:46.638Z,100874.72
2022-08-17T02:05:15.510Z,100874.84
2022-08-17T02:07:59.574Z,100880.47
2022-08-17T02:10:33.927Z,100888.91
2022-08-17T02:13:03.311Z,100879.13
2022-08-17T02:15:31.978Z,100880.16
2022-08-17T02:18:00.674Z,100884.88
2022-08-17T02:20:41.293Z,100888.63
2022-08-17T02:23:13.696Z,100892.50
2022-08-17T02:25:47.689Z,100892.59
2022-08-17T02:28:16.851Z,100900.91
2022-08-17T02:31:00.310Z,100888.25
2022-08-17T02:33:41.555Z,100894.88
2022-08-17T02:36:11.342Z,100886.53
2022-08-17T02:38:40.264Z,100886.53
2022-08-17T02:41:12.648Z,100892.00
2022-08-17T02:43:41.118Z,100893.00
2022-08-17T02:46:09.639Z,100895.59
2022-08-17T02:48:37.877Z,100906.50
2022-08-17T02:51:06.169Z,100906.38
2022-08-17T02:53:35.920Z,100895.31
2022-08-17T02:56:05.264Z,100904.13
2022-08-17T02:58:36.066Z,100890.03
2022-08-17T03:01:07.053Z,100892.38
2022-08-17T03:03:36.624Z,100892.66
2022-08-17T03:06:07.643Z,100895.84
2022-08-17T03:08:37.423Z,100891.53
2022-08-17T03:11:06.050Z,100890.09
2022-08-17T03:13:35.727Z,100894.13
2022-08-17T03:16:04.187Z,100881.91
2022-08-17T03:18:32.649Z,100886.97
2022-08-17T03:21:04.471Z,100880.34
2022-08-17T03:23:33.759Z,100883.63
2022-08-17T03:26:02.219Z,100888.81
2022-08-17T03:28:30.665Z,100883.06
2022-08-17T03:31:00.337Z,100882.78
2022-08-17T03:33:28.646Z,100889.66
2022-08-17T03:35:57.615Z,100889.50
2022-08-17T03:38:26.345Z,100882.94
2022-08-17T03:40:59.509Z,100882.03
2022-08-17T03:43:31.727Z,100885.66
2022-08-17T03:46:29.009Z,100884.66
2022-08-17T03:49:20.873Z,100887.50
2022-08-17T03:52:06.468Z,100885.78
2022-08-17T03:54:52.154Z,100895.97
2022-08-17T03:57:20.465Z,100896.44
2022-08-17T03:59:48.900Z,100903.03
2022-08-17T04:02:22.472Z,100907.03
2022-08-17T04:04:52.295Z,100916.38
2022-08-17T04:07:22.774Z,100911.94
2022-08-17T04:09:51.087Z,100910.34
2022-08-17T04:12:23.157Z,100911.38
2022-08-17T04:14:54.669Z,100915.25
2022-08-17T04:17:28.996Z,100923.84
2022-08-17T04:19:57.800Z,100926.00
2022-08-17T04:22:31.818Z,100927.28
2022-08-17T04:25:07.183Z,100924.25
2022-08-17T04:27:35.800Z,100933.59
2022-08-17T04:30:06.973Z,100922.53
2022-08-17T04:32:59.477Z,100924.25
2022-08-17T04:35:43.653Z,100922.25
2022-08-17T04:38:15.360Z,100922.09
2022-08-17T04:41:01.727Z,100928.84
2022-08-17T04:43:32.034Z,100934.03
2022-08-17T04:46:02.771Z,100921.94
2022-08-17T04:48:37.400Z,100930.13
2022-08-17T04:51:10.821Z,100925.38
2022-08-17T04:53:41.128Z,100920.66
2022-08-17T04:56:16.213Z,100923.13
2022-08-17T04:58:46.730Z,100929.16
2022-08-17T05:01:15.441Z,100939.63
2022-08-17T05:03:45.437Z,100942.91
2022-08-17T05:06:13.989Z,100944.38
2022-08-17T05:08:42.614Z,100949.41
2022-08-17T05:11:10.894Z,100951.59
2022-08-17T05:13:39.157Z,100952.16
2022-08-17T05:16:09.120Z,100947.56
2022-08-17T05:18:38.873Z,100954.47
2022-08-17T05:21:08.938Z,100953.13
2022-08-17T05:23:41.830Z,100957.59
2022-08-17T05:26:26.190Z,100963.63
2022-08-17T05:29:02.438Z,100966.66
2022-08-17T05:31:32.407Z,100955.03
2022-08-17T05:34:00.773Z,100952.59
2022-08-17T05:36:43.543Z,100953.00
2022-08-17T05:39:16.089Z,100949.31
2022-08-17T05:41:48.912Z,100946.44
2022-08-17T05:44:18.105Z,100957.19
2022-08-17T05:46:52.737Z,100956.34
2022-08-17T05:49:28.459Z,100951.59
2022-08-17T05:52:21.781Z,100952.00
2022-08-17T05:55:05.376Z,100938.50
2022-08-17T05:58:01.000Z,100943.16
2022-08-17T06:00:42.759Z,100943.09
2022-08-17T06:03:28.230Z,100953.88
2022-08-17T06:06:10.135Z,100948.41
2022-08-17T06:08:51.967Z,100948.97
2022-08-17T06:11:29.525Z,100956.59
2022-08-17T06:14:23.309Z,100958.72
2022-08-17T06:16:56.326Z,100965.47
2022-08-17T06:19:37.258Z,100965.88
2022-08-17T06:22:06.831Z,100964.69
2022-08-17T06:24:40.503Z,100974.00
2022-08-17T06:27:15.154Z,100973.78
2022-08-17T06:29:54.270Z,100972.81
2022-08-17T06:32:23.198Z,100962.59
2022-08-17T06:34:52.591Z,100966.34
2022-08-17T06:38:01.564Z,100966.16
2022-08-17T06:40:57.509Z,100968.84
2022-08-17T06:43:48.199Z,100966.56
2022-08-17T06:46:25.300Z,100969.13
2022-08-17T06:49:08.185Z,100970.81
2022-08-17T06:51:41.871Z,100966.47
2022-08-17T06:54:20.028Z,100972.91
2022-08-17T06:56:58.348Z,100974.13
2022-08-17T06:59:36.289Z,100979.34
2022-08-17T07:02:51.160Z,100983.50
2022-08-17T07:05:25.282Z,100995.94
2022-08-17T07:08:02.567Z,100998.28
2022-08-17T07:10:39.018Z,100996.78
2022-08-17T07:13:32.422Z,101003.53
2022-08-17T07:16:14.710Z,101005.84
2022-08-17T07:18:43.834Z,100999.69
2022-08-17T07:21:26.510Z,101009.69
2022-08-17T07:24:30.069Z,100990.97
2022-08-17T07:27:09.328Z,100993.72
2022-08-17T07:29:49.445Z,100995.28
2022-08-17T07:32:23.142Z,101007.31
2022-08-17T07:35:17.983Z,100997.34
2022-08-17T07:37:54.153Z,101000.09
2022-08-17T07:40:32.096Z,101006.97
2022-08-17T07:43:26.360Z,101015.03
2022-08-17T07:46:37.136Z,101014.00
2022-08-17T07:49:33.639Z,101015.91
2022-08-17T07:52:47.433Z,101006.44
2022-08-17T07:54:56.112Z,100996.78
2022-08-17T07:57:37.099Z,101002.25
2022-08-17T08:00:19.387Z,101000.09
2022-08-17T08:03:18.312Z,101002.81
2022-08-17T08:05:53.587Z,100997.22
2022-08-17T08:08:37.788Z,101009.03
2022-08-17T08:11:11.270Z,101004.47
2022-08-17T08:13:43.661Z,101005.22
2022-08-17T08:16:25.341Z,101008.03
2022-08-17T08:18:58.406Z,101013.13
2022-08-17T08:21:43.406Z,101019.97
2022-08-17T08:24:37.688Z,101025.84
2022-08-17T08:27:23.063Z,101026.13
2022-08-17T08:29:58.367Z,101019.38
2022-08-17T08:32:48.030Z,101021.41
2022-08-17T08:35:32.443Z,101020.28
2022-08-17T08:38:13.484Z,101027.63
2022-08-17T08:41:22.614Z,101022.09
2022-08-17T08:44:06.058Z,101028.22
2022-08-17T08:46:47.334Z,101024.88
2022-08-17T08:50:03.420Z,101030.88
2022-08-17T08:53:18.929Z,101030.03
2022-08-17T08:55:55.936Z,101037.03
2022-08-17T08:58:41.874Z,101035.41
2022-08-17T09:01:22.160Z,101040.81
2022-08-17T09:04:28.694Z,101038.81
2022-08-17T09:07:17.279Z,101039.47
2022-08-17T09:09:59.485Z,101044.19
2022-08-17T09:12:37.426Z,101047.19
2022-08-17T09:15:13.989Z,101047.00
2022-08-17T09:18:21.387Z,101053.91
2022-08-17T09:20:50.367Z,101047.13
2022-08-17T09:23:32.460Z,101050.13
2022-08-17T09:26:09.779Z,101051.91
2022-08-17T09:28:42.609Z,101052.72
2022-08-17T09:31:15.931Z,101050.56
2022-08-17T09:33:48.634Z,101044.84
2022-08-17T09:36:24.181Z,101052.19
2022-08-17T09:39:02.002Z,101054.16
2022-08-17T09:41:39.543Z,101049.56
2022-08-17T09:44:29.038Z,101050.13
2022-08-17T09:47:05.707Z,101056.00
2022-08-17T09:49:42.509Z,101048.22
2022-08-17T09:52:18.619Z,101045.72
2022-08-17T09:54:48.029Z,101042.59
2022-08-17T09:57:34.272Z,101045.34
2022-08-17T10:00:20.475Z,101031.69
2022-08-17T10:03:21.781Z,101035.50
2022-08-17T10:05:57.649Z,101037.50
2022-08-17T10:08:36.525Z,101042.91
2022-08-17T10:11:19.507Z,101044.91
2022-08-17T10:13:59.576Z,101037.69
2022-08-17T10:16:38.303Z,101046.69
2022-08-17T10:19:17.018Z,101050.13
2022-08-17T10:22:32.419Z,101045.34
2022-08-17T10:25:23.850Z,101037.38
2022-08-17T10:27:59.183Z,101044.16
2022-08-17T10:30:33.435Z,101044.31
2022-08-17T10:33:05.354Z,101042.16
2022-08-17T10:35:45.530Z,101040.13
2022-08-17T10:38:38.682Z,101035.66
2022-08-17T10:41:30.052Z,101035.22
2022-08-17T10:44:38.632Z,101040.75
2022-08-17T10:47:09.286Z,101030.34
2022-08-17T10:49:39.718Z,101022.50
2022-08-17T10:52:50.184Z,101015.94
2022-08-17T10:55:20.698Z,101018.28
2022-08-17T10:57:51.199Z,101021.47
2022-08-17T11:00:58.299Z,101019.16
2022-08-17T11:03:27.629Z,101021.47
2022-08-17T11:06:12.701Z,101020.84
2022-08-17T11:09:20.915Z,101019.78
2022-08-17T11:12:32.730Z,101019.34
2022-08-17T11:15:22.151Z,101016.34
2022-08-17T11:18:27.365Z,101021.69
2022-08-17T11:21:41.443Z,101011.66
2022-08-17T11:24:20.766Z,101014.00
2022-08-17T11:27:12.280Z,101011.41
2022-08-17T11:29:56.835Z,101006.31
2022-08-17T11:32:47.383Z,101014.00
2022-08-17T11:35:42.636Z,101010.38
2022-08-17T11:38:25.803Z,101007.59
2022-08-17T11:41:22.321Z,101010.16
2022-08-17T11:44:23.924Z,101013.34
2022-08-17T11:47:28.054Z,101009.53
2022-08-17T11:50:36.574Z,101010.16
2022-08-17T11:53:05.526Z,101007.38
2022-08-17T11:56:08.078Z,101011.22
2022-08-17T11:58:41.945Z,101009.03
2022-08-17T12:01:13.742Z,101002.63
2022-08-17T12:03:54.217Z,101004.31
2022-08-17T12:06:48.733Z,101005.16
2022-08-17T12:09:22.145Z,101002.19
2022-08-17T12:12:12.007Z,101006.88
2022-08-17T12:15:09.626Z,101007.53
2022-08-17T12:17:52.275Z,101004.81
2022-08-17T12:20:27.853Z,101000.13
2022-08-17T12:23:10.530Z,101002.88
2022-08-17T12:25:44.532Z,101006.53
2022-08-17T12:28:25.314Z,101009.28
2022-08-17T12:30:57.326Z,101005.03
2022-08-17T12:33:28.837Z,101001.63
2022-08-17T12:36:02.834Z,101000.34
2022-08-17T12:38:34.769Z,101007.94
2022-08-17T12:41:26.353Z,101000.66
2022-08-17T12:44:01.622Z,101000.00
2022-08-17T12:46:35.903Z,101005.75
2022-08-17T12:49:22.869Z,100996.97
2022-08-17T12:51:56.986Z,100995.22
2022-08-17T12:54:33.878Z,100996.91
2022-08-17T12:57:07.378Z,100993.88
2022-08-17T12:59:40.696Z,100996.41
2022-08-17T13:02:21.424Z,100994.66
2022-08-17T13:04:50.102Z,100992.72
2022-08-17T13:07:30.941Z,100987.34
2022-08-17T13:09:59.694Z,100991.16
2022-08-17T13:12:34.550Z,100990.91
2022-08-17T13:15:03.304Z,100994.50
2022-08-17T13:17:36.593Z,100997.88
2022-08-17T13:20:14.734Z,100996.16
2022-08-17T13:22:44.486Z,100992.28
2022-08-17T13:25:17.831Z,101000.94
2022-08-17T13:27:49.292Z,100996.81
2022-08-17T13:30:27.979Z,100988.00
2022-08-17T13:32:58.696Z,100997.97
2022-08-17T13:35:44.142Z,101001.72
2022-08-17T13:38:40.517Z,100999.31
2022-08-17T13:41:08.869Z,100999.41
2022-08-17T13:43:49.581Z,100997.59
2022-08-17T13:46:24.498Z,100990.47
2022-08-17T13:49:03.784Z,100990.59
2022-08-17T13:51:36.661Z,100988.63
2022-08-17T13:54:21.594Z,100996.47
2022-08-17T13:57:01.610Z,100998.56
2022-08-17T13:59:54.278Z,100992.75
2022-08-17T14:02:27.233Z,100987.63
2022-08-17T14:05:00.575Z,100994.41
2022-08-17T14:07:36.486Z,100987.38
2022-08-17T14:10:14.243Z,100988.38
2022-08-17T14:12:45.298Z,100993.25
2022-08-17T14:15:16.739Z,100988.59
2022-08-17T14:17:45.315Z,100987.72
2022-08-17T14:20:15.228Z,100989.63
2022-08-17T14:22:48.286Z,101000.03
2022-08-17T14:25:20.701Z,100990.69
2022-08-17T14:27:53.469Z,100993.06
2022-08-17T14:30:25.283Z,100991.63
2022-08-17T14:32:55.315Z,100984.47
2022-08-17T14:35:27.874Z,100977.31
2022-08-17T14:37:56.552Z,100984.59
2022-08-17T14:40:25.702Z,100976.09
2022-08-17T14:42:57.653Z,100983.53
2022-08-17T14:45:32.051Z,100973.53
2022-08-17T14:48:05.653Z,100971.56
2022-08-17T14:50:36.312Z,100970.91
2022-08-17T14:53:06.243Z,100974.72
2022-08-17T14:55:35.506Z,100972.34
2022-08-17T14:58:04.902Z,100972.53
2022-08-17T15:00:33.304Z,100973.59
2022-08-17T15:03:03.271Z,100967.00
2022-08-17T15:05:36.969Z,100972.53
2022-08-17T15:08:06.276Z,100965.09
2022-08-17T15:10:35.220Z,100959.78
2022-08-17T15:13:03.836Z,100956.06
2022-08-17T15:15:32.648Z,100955.31
2022-08-17T15:18:02.426Z,100950.56
2022-08-17T15:20:31.585Z,100952.88
2022-08-17T15:23:01.250Z,100945.84
2022-08-17T15:25:32.764Z,100950.69
2022-08-17T15:28:02.330Z,100952.13
2022-08-17T15:30:31.903Z,100942.72
2022-08-17T15:33:03.608Z,100951.41
2022-08-17T15:35:34.325Z,100946.44
2022-08-17T15:38:11.529Z,100942.56
2022-08-17T15:40:44.179Z,100948.28
2022-08-17T15:43:17.527Z,100948.94
2022-08-17T15:45:52.907Z,100950.25
2022-08-17T15:48:40.692Z,100938.53
2022-08-17T15:51:12.090Z,100943.47
2022-08-17T15:53:43.328Z,100938.81
2022-08-17T15:56:13.655Z,100939.00
2022-08-17T15:58:43.649Z,100937.94
2022-08-17T16:01:18.733Z,100940.53
2022-08-17T16:04:06.535Z,100934.16
2022-08-17T16:06:35.715Z,100943.47
2022-08-17T16:09:05.568Z,100947.28
2022-08-17T16:11:33.843Z,100951.31
2022-08-17T16:14:02.142Z,100941.50
2022-08-17T16:16:31.278Z,100944.66
2022-08-17T16:18:59.627Z,100942.47
2022-08-17T16:21:29.708Z,100937.53
2022-08-17T16:24:06.217Z,100938.56
2022-08-17T16:26:41.853Z,100933.44
2022-08-17T16:29:10.564Z,100928.13
2022-08-17T16:31:39.060Z,100928.66
2022-08-17T16:34:17.579Z,100930.78
2022-08-17T16:36:55.333Z,100936.84
2022-08-17T16:39:29.011Z,100937.41
2022-08-17T16:41:58.291Z,100932.28
2022-08-17T16:44:30.917Z,100925.78
2022-08-17T16:47:01.017Z,100921.91
2022-08-17T16:49:36.929Z,100914.88
2022-08-17T16:52:10.608Z,100920.59
2022-08-17T16:54:44.250Z,100914.41
2022-08-17T16:57:13.382Z,100922.47
2022-08-17T16:59:47.468Z,100908.69
2022-08-17T17:02:17.922Z,100913.34
2022-08-17T17:04:59.341Z,100917.16
2022-08-17T17:07:50.044Z,100908.69
2022-08-17T17:10:23.980Z,100904.03
2022-08-17T17:13:01.414Z,100902.13
2022-08-17T17:15:49.385Z,100898.50
2022-08-17T17:18:17.766Z,100899.34
2022-08-17T17:20:55.726Z,100905.06
2022-08-17T17:23:42.267Z,100904.38
2022-08-17T17:26:33.195Z,100903.91
2022-08-17T17:29:20.833Z,100913.63
2022-08-17T17:32:05.509Z,100909.91
2022-08-17T17:34:36.357Z,100912.56
2022-08-17T17:37:11.844Z,100905.41
2022-08-17T17:39:48.958Z,100907.56
2022-08-17T17:42:24.512Z,100904.19
2022-08-17T17:47:31.289Z,100902.84
2022-08-17T17:50:03.141Z,100902.22
2022-08-17T17:52:45.320Z,100901.28
2022-08-17T17:55:30.377Z,100898.94
2022-08-17T17:58:13.331Z,100901.75
2022-08-17T18:00:48.994Z,100910.59
2022-08-17T18:03:43.979Z,100909.56
2022-08-17T18:06:29.259Z,100913.25
2022-08-17T18:09:19.318Z,100921.34
2022-08-17T18:12:13.078Z,100927.94
2022-08-17T18:15:21.708Z,100928.88
2022-08-17T18:18:38.590Z,100934.59
2022-08-17T18:21:16.391Z,100935.81
2022-08-17T18:23:52.546Z,100940.63
2022-08-17T18:26:48.086Z,100941.16
2022-08-17T18:29:35.876Z,100935.34
2022-08-17T18:32:27.611Z,100928.47
2022-08-17T18:35:02.052Z,100926.91
2022-08-17T18:37:39.834Z,100940.00
2022-08-17T18:40:33.901Z,100933.28
2022-08-17T18:43:24.291Z,100929.16
2022-08-17T18:45:55.834Z,100922.81
2022-08-17T18:48:33.405Z,100913.00
2022-08-17T18:51:26.258Z,100915.09
2022-08-17T18:54:21.303Z,100908.25
2022-08-17T18:56:55.435Z,100917.84
2022-08-17T18:59:36.055Z,100928.19
2022-08-17T19:02:41.807Z,100934.03
2022-08-17T19:05:34.294Z,100939.91
2022-08-17T19:08:24.186Z,100938.19
2022-08-17T19:10:56.853Z,100931.13
2022-08-17T19:13:32.316Z,100933.19
2022-08-17T19:16:13.897Z,100942.47
2022-08-17T19:18:50.184Z,100944.56
2022-08-17T19:21:26.402Z,100936.66
2022-08-17T19:24:01.660Z,100941.50
2022-08-17T19:26:54.855Z,100937.88
2022-08-17T19:29:30.973Z,100929.81
2022-08-17T19:32:00.470Z,100929.09
2022-08-17T19:34:35.436Z,100924.81
2022-08-17T19:37:13.265Z,100927.75
2022-08-17T19:39:51.813Z,100932.56
2022-08-17T19:42:42.482Z,100930.00
2022-08-17T19:45:28.225Z,100931.19
2022-08-17T19:48:13.556Z,100923.28
2022-08-17T19:50:53.241Z,100929.13
2022-08-17T19:53:54.502Z,100924.34
2022-08-17T19:56:34.723Z,100926.88
2022-08-17T19:59:11.712Z,100935.81
2022-08-17T20:01:46.756Z,100949.56
2022-08-17T20:04:32.374Z,100951.13
2022-08-17T20:07:07.820Z,100955.38
2022-08-17T20:09:40.711Z,100964.81
2022-08-17T20:12:17.362Z,100997.75
2022-08-17T20:14:55.388Z,101020.88
2022-08-17T20:17:28.935Z,101041.25
2022-08-17T20:20:06.400Z,101091.09
2022-08-17T20:22:52.043Z,101110.38
2022-08-17T20:25:34.131Z,101134.97
2022-08-17T20:28:15.674Z,101145.44
2022-08-17T20:30:45.033Z,101139.41
2022-08-17T20:33:27.703Z,101145.47
2022-08-17T20:36:17.340Z,101121.97
2022-08-17T20:38:50.343Z,101097.78
2022-08-17T20:41:22.791Z,101094.53
2022-08-17T20:44:05.396Z,101077.09
2022-08-17T20:46:57.968Z,101066.59
2022-08-17T20:49:39.720Z,101056.53
2022-08-17T20:52:13.442Z,101054.50
2022-08-17T20:54:51.333Z,101040.38
2022-08-17T20:57:48.824Z,101030.91
2022-08-17T21:00:44.999Z,101020.28
2022-08-17T21:03:50.376Z,101019.41
2022-08-17T21:06:24.482Z,101021.00
2022-08-17T21:08:58.852Z,101004.63
2022-08-17T21:12:03.898Z,101009.78
2022-08-17T21:15:02.187Z,101000.28
2022-08-17T21:17:49.742Z,100984.38
2022-08-17T21:20:33.244Z,100985.53
2022-08-17T21:23:22.225Z,100976.63
2022-08-17T21:26:19.939Z,100975.16
2022-08-17T21:29:14.711Z,100971.88
2022-08-17T21:32:19.273Z,100960.34
2022-08-17T21:35:28.512Z,100977.19
2022-08-17T21:38:05.017Z,100974.72
2022-08-17T21:40:35.280Z,100978.88
2022-08-17T21:43:25.116Z,100981.47
2022-08-17T21:46:04.516Z,100972.97
2022-08-17T21:48:44.343Z,100974.56
2022-08-17T21:51:19.065Z,100977.13
2022-08-17T21:53:52.304Z,100973.09
2022-08-17T21:56:28.349Z,100971.81
2022-08-17T21:59:03.017Z,100972.50
2022-08-17T22:01:35.755Z,100973.94
2022-08-17T22:04:19.092Z,100987.44
2022-08-17T22:06:56.475Z,100973.66
2022-08-17T22:09:29.028Z,100977.09
2022-08-17T22:12:06.349Z,100975.94
2022-08-17T22:14:52.628Z,100982.09
2022-08-17T22:17:25.520Z,100963.81
2022-08-17T22:19:58.983Z,100960.94
2022-08-17T22:22:59.901Z,100967.13
2022-08-17T22:25:29.560Z,100956.19
2022-08-17T22:28:01.111Z,100957.03
2022-08-17T22:30:37.182Z,100940.63
2022-08-17T22:33:32.420Z,100934.63
2022-08-17T22:36:26.029Z,100931.03
2022-08-17T22:38:59.539Z,100937.50
2022-08-17T22:41:41.769Z,100943.13
2022-08-17T22:44:20.477Z,100946.00
2022-08-17T22:47:22.731Z,100947.88
2022-08-17T22:49:54.707Z,100952.50
2022-08-17T22:52:34.106Z,100964.44
2022-08-17T22:55:27.051Z,100963.69
2022-08-17T22:58:09.239Z,100981.97
2022-08-17T23:00:41.668Z,100956.97
2022-08-17T23:03:18.920Z,100956.25
2022-08-17T23:06:02.732Z,100957.56
2022-08-17T23:08:35.553Z,100940.59
2022-08-17T23:11:04.054Z,100932.69
2022-08-17T23:13:33.417Z,100936.44
2022-08-17T23:16:02.434Z,100934.00
2022-08-17T23:18:30.770Z,100942.47
2022-08-17T23:20:59.111Z,100938.03
2022-08-17T23:23:27.560Z,100925.38
2022-08-17T23:25:57.254Z,100928.25
2022-08-17T23:28:25.581Z,100936.31
2022-08-17T23:30:53.957Z,100932.56
2022-08-17T23:33:30.253Z,100931.56
2022-08-17T23:35:59.600Z,100925.97
2022-08-17T23:38:28.811Z,100916.59
2022-08-17T23:41:02.931Z,100910.13
2022-08-17T23:43:31.637Z,100910.84
2022-08-17T23:46:03.585Z,100911.53
2022-08-17T23:48:35.975Z,100899.44
2022-08-17T23:51:09.697Z,100915.56
2022-08-17T23:53:44.077Z,100900.59
2022-08-17T23:56:13.943Z,100908.63
2022-08-17T23:58:44.917Z,100909.19
